createdAt,value
2019-05-06T00:01:54.006Z,9.60
2019-05-06T00:04:24.744Z,12.97
2019-05-06T00:06:54.801Z,14.47
2019-05-06T00:09:24.201Z,21.70
2019-05-06T00:11:54.391Z,9.90
2019-05-06T00:14:23.633Z,15.23
2019-05-06T00:16:55.081Z,8.53
2019-05-06T00:19:24.657Z,13.37
2019-05-06T00:21:54.021Z,9.00
2019-05-06T00:24:25.079Z,10.43
2019-05-06T00:27:01.193Z,12.70
2019-05-06T00:29:30.467Z,12.97
2019-05-06T00:31:59.161Z,9.83
2019-05-06T00:34:27.927Z,8.00
2019-05-06T00:36:56.613Z,9.77
2019-05-06T00:39:39.351Z,13.83
2019-05-06T00:42:26.391Z,14.03
2019-05-06T00:44:55.083Z,7.37
2019-05-06T00:47:44.404Z,11.40
2019-05-06T00:50:14.295Z,14.43
2019-05-06T00:52:44.722Z,14.10
2019-05-06T00:55:13.792Z,10.83
2019-05-06T00:57:45.187Z,13.27
2019-05-06T01:00:19.639Z,14.10
2019-05-06T01:02:48.432Z,13.90
2019-05-06T01:05:17.232Z,8.07
2019-05-06T01:07:45.923Z,7.53
2019-05-06T01:10:15.619Z,14.73
2019-05-06T01:12:54.915Z,10.87
2019-05-06T01:15:25.257Z,15.83
2019-05-06T01:17:53.954Z,16.43
2019-05-06T01:20:24.621Z,17.37
2019-05-06T01:22:54.409Z,12.93
2019-05-06T01:25:23.770Z,17.20
2019-05-06T01:27:54.051Z,15.43
2019-05-06T01:30:24.412Z,8.67
2019-05-06T01:32:54.326Z,15.07
2019-05-06T01:35:24.533Z,13.03
2019-05-06T01:38:11.975Z,8.37
2019-05-06T01:40:51.287Z,14.80
2019-05-06T01:43:23.966Z,15.47
2019-05-06T01:45:53.662Z,10.97
2019-05-06T01:48:40.692Z,11.93
2019-05-06T01:51:09.391Z,11.10
2019-05-06T01:53:38.092Z,14.13
2019-05-06T01:56:06.795Z,12.63
2019-05-06T01:58:35.520Z,11.00
2019-05-06T02:01:04.393Z,17.40
2019-05-06T02:03:34.725Z,8.50
2019-05-06T02:06:04.836Z,13.70
2019-05-06T02:08:33.786Z,18.23
2019-05-06T02:11:04.072Z,16.00
2019-05-06T02:13:34.829Z,10.63
2019-05-06T02:16:03.938Z,14.63
2019-05-06T02:18:33.974Z,9.97
2019-05-06T02:21:10.596Z,13.80
2019-05-06T02:23:53.636Z,12.13
2019-05-06T02:26:23.891Z,17.40
2019-05-06T02:28:54.594Z,20.73
2019-05-06T02:31:40.828Z,9.60
2019-05-06T02:34:11.168Z,11.53
2019-05-06T02:36:47.480Z,12.70
2019-05-06T02:39:16.202Z,13.53
2019-05-06T02:41:44.884Z,22.63
2019-05-06T02:44:13.922Z,11.50
2019-05-06T02:46:44.333Z,12.20
2019-05-06T02:49:23.559Z,11.27
2019-05-06T02:51:53.534Z,18.43
2019-05-06T02:54:23.485Z,9.40
2019-05-06T02:56:53.129Z,12.77
2019-05-06T02:59:24.102Z,13.33
2019-05-06T03:01:53.787Z,16.17
2019-05-06T03:04:23.611Z,13.83
2019-05-06T03:06:53.426Z,11.33
2019-05-06T03:09:23.328Z,13.27
2019-05-06T03:11:54.088Z,15.93
2019-05-06T03:14:23.393Z,12.27
2019-05-06T03:16:53.849Z,12.60
2019-05-06T03:19:24.158Z,11.87
2019-05-06T03:22:03.319Z,18.20
2019-05-06T03:24:33.231Z,13.60
2019-05-06T03:27:04.700Z,23.23
2019-05-06T03:29:33.392Z,12.87
2019-05-06T03:32:07.144Z,14.87
2019-05-06T03:34:52.685Z,8.30
2019-05-06T03:37:07.338Z,13.40
2019-05-06T03:39:33.927Z,14.73
2019-05-06T03:42:04.495Z,16.23
2019-05-06T03:44:34.568Z,11.23
2019-05-06T03:47:23.210Z,13.40
2019-05-06T03:49:54.637Z,13.93
2019-05-06T03:52:23.251Z,8.97
2019-05-06T03:54:53.828Z,9.43
2019-05-06T03:57:23.916Z,14.47
2019-05-06T03:59:53.341Z,5.87
2019-05-06T04:02:24.081Z,10.23
2019-05-06T04:04:55.950Z,9.70
2019-05-06T04:07:23.770Z,15.07
2019-05-06T04:09:53.437Z,11.30
2019-05-06T04:12:24.627Z,9.27
2019-05-06T04:14:54.271Z,8.53
2019-05-06T04:17:28.516Z,13.70
2019-05-06T04:20:04.375Z,13.33
2019-05-06T04:22:34.738Z,10.97
2019-05-06T04:25:23.285Z,11.27
2019-05-06T04:27:54.144Z,10.53
2019-05-06T04:30:24.307Z,13.03
2019-05-06T04:32:53.585Z,10.00
2019-05-06T04:35:23.059Z,13.57
2019-05-06T04:37:53.872Z,14.20
2019-05-06T04:40:23.827Z,13.80
2019-05-06T04:42:53.039Z,10.87
2019-05-06T04:45:23.616Z,13.83
2019-05-06T04:47:53.674Z,9.13
2019-05-06T04:50:24.165Z,10.40
2019-05-06T04:53:04.861Z,6.53
2019-05-06T04:55:36.511Z,7.97
2019-05-06T04:58:06.138Z,13.43
2019-05-06T05:00:37.180Z,5.03
2019-05-06T05:03:05.856Z,7.53
2019-05-06T05:05:35.244Z,8.37
2019-05-06T05:08:03.973Z,5.80
2019-05-06T05:10:53.031Z,7.00
2019-05-06T05:13:32.944Z,5.90
2019-05-06T05:16:03.475Z,8.33
2019-05-06T05:18:42.560Z,7.90
2019-05-06T05:21:11.926Z,4.27
2019-05-06T05:23:42.729Z,8.77
2019-05-06T05:26:12.061Z,6.50
2019-05-06T05:28:42.885Z,4.47
2019-05-06T05:31:12.261Z,5.47
2019-05-06T05:33:42.359Z,6.37
2019-05-06T05:36:12.373Z,7.30
2019-05-06T05:38:42.879Z,6.77
2019-05-06T05:41:12.228Z,4.40
2019-05-06T05:43:42.528Z,7.37
2019-05-06T05:46:12.588Z,4.97
2019-05-06T05:48:46.823Z,6.10
2019-05-06T05:51:16.023Z,5.10
2019-05-06T05:53:44.816Z,4.57
2019-05-06T05:56:13.918Z,3.93
2019-05-06T05:58:42.607Z,9.00
2019-05-06T06:01:12.644Z,5.27
2019-05-06T06:03:42.218Z,9.03
2019-05-06T06:06:12.646Z,5.83
2019-05-06T06:08:43.152Z,4.43
2019-05-06T06:11:19.755Z,6.33
2019-05-06T06:13:48.439Z,5.80
2019-05-06T06:16:32.833Z,4.50
2019-05-06T06:19:18.979Z,5.73
2019-05-06T06:21:49.319Z,5.47
2019-05-06T06:24:19.648Z,3.30
2019-05-06T06:26:48.352Z,5.70
2019-05-06T06:29:17.439Z,4.50
2019-05-06T06:31:47.780Z,7.90
2019-05-06T06:34:27.113Z,5.63
2019-05-06T06:36:57.456Z,4.63
2019-05-06T06:39:36.799Z,4.37
2019-05-06T06:42:05.507Z,5.03
2019-05-06T06:44:36.156Z,4.77
2019-05-06T06:47:04.852Z,4.73
2019-05-06T06:49:53.474Z,7.53
2019-05-06T06:52:23.382Z,3.60
2019-05-06T06:54:52.642Z,6.03
2019-05-06T06:57:23.248Z,4.37
2019-05-06T06:59:59.588Z,4.63
2019-05-06T07:02:39.327Z,3.77
2019-05-06T07:05:27.837Z,3.80
2019-05-06T07:07:53.137Z,2.80
2019-05-06T07:10:40.215Z,4.10
2019-05-06T07:13:08.976Z,5.33
2019-05-06T07:15:37.675Z,6.37
2019-05-06T07:18:07.060Z,5.13
2019-05-06T07:20:54.036Z,5.63
2019-05-06T07:23:27.177Z,3.13
2019-05-06T07:25:56.074Z,8.70
2019-05-06T07:28:25.267Z,7.27
2019-05-06T07:30:54.845Z,4.90
2019-05-06T07:33:23.607Z,4.30
2019-05-06T07:35:52.989Z,4.33
2019-05-06T07:38:23.343Z,7.70
2019-05-06T07:40:53.914Z,4.63
2019-05-06T07:43:30.358Z,3.83
2019-05-06T07:46:15.769Z,4.43
2019-05-06T07:48:44.469Z,4.85
2019-05-06T07:51:13.171Z,4.45
2019-05-06T07:53:42.655Z,3.02
2019-05-06T07:56:12.634Z,4.30
2019-05-06T07:58:43.333Z,4.03
2019-05-06T08:01:13.602Z,5.40
2019-05-06T08:03:42.899Z,2.77
2019-05-06T08:06:13.195Z,5.47
2019-05-06T08:08:43.363Z,4.47
2019-05-06T08:11:12.425Z,5.50
2019-05-06T08:13:43.489Z,4.73
2019-05-06T08:16:13.073Z,2.23
2019-05-06T08:18:42.687Z,5.67
2019-05-06T08:21:25.416Z,4.67
2019-05-06T08:23:55.088Z,8.03
2019-05-06T08:26:23.779Z,4.50
2019-05-06T08:28:52.875Z,5.40
2019-05-06T08:31:22.766Z,3.37
2019-05-06T08:33:52.415Z,4.73
2019-05-06T08:36:23.768Z,2.67
2019-05-06T08:38:59.722Z,5.27
2019-05-06T08:41:28.411Z,3.00
2019-05-06T08:43:57.413Z,1.50
2019-05-06T08:46:26.104Z,2.27
2019-05-06T08:48:54.801Z,3.40
2019-05-06T08:51:37.199Z,1.63
2019-05-06T08:54:07.527Z,4.43
2019-05-06T08:56:36.227Z,1.43
2019-05-06T08:59:04.923Z,3.20
2019-05-06T09:01:35.341Z,4.97
2019-05-06T09:04:12.063Z,3.23
2019-05-06T09:06:35.532Z,3.03
2019-05-06T09:09:06.540Z,4.17
2019-05-06T09:11:35.227Z,1.73
2019-05-06T09:14:03.942Z,0.73
2019-05-06T09:16:33.204Z,2.67
2019-05-06T09:19:04.363Z,2.20
2019-05-06T09:21:33.581Z,3.93
2019-05-06T09:24:02.573Z,2.63
2019-05-06T09:26:35.928Z,3.97
2019-05-06T09:29:09.284Z,7.47
2019-05-06T09:31:39.608Z,4.40
2019-05-06T09:34:26.443Z,2.37
2019-05-06T09:37:14.273Z,2.97
2019-05-06T09:39:46.615Z,3.50
2019-05-06T09:42:16.013Z,3.40
2019-05-06T09:44:49.907Z,4.10
2019-05-06T09:47:24.488Z,6.00
2019-05-06T09:49:53.350Z,1.50
2019-05-06T09:52:23.143Z,2.80
2019-05-06T09:55:10.155Z,2.90
2019-05-06T09:57:56.812Z,7.50
2019-05-06T10:00:27.171Z,1.60
2019-05-06T10:02:55.877Z,3.70
2019-05-06T10:05:24.580Z,11.53
2019-05-06T10:07:53.987Z,4.60
2019-05-06T10:10:22.679Z,3.50
2019-05-06T10:12:53.006Z,5.33
2019-05-06T10:15:22.324Z,3.10
2019-05-06T10:18:13.070Z,3.10
2019-05-06T10:20:43.293Z,4.67
2019-05-06T10:23:13.148Z,2.60
2019-05-06T10:25:43.669Z,6.27
2019-05-06T10:28:33.229Z,7.10
2019-05-06T10:31:02.115Z,2.77
2019-05-06T10:33:32.679Z,10.80
2019-05-06T10:36:04.779Z,4.83
2019-05-06T10:38:54.787Z,4.30
2019-05-06T10:41:26.424Z,4.20
2019-05-06T10:44:16.167Z,5.33
2019-05-06T10:46:44.863Z,4.40
2019-05-06T10:49:14.353Z,4.37
2019-05-06T10:51:52.874Z,4.20
2019-05-06T10:54:22.921Z,2.23
2019-05-06T10:56:56.986Z,1.23
2019-05-06T10:59:23.516Z,1.80
2019-05-06T11:01:56.963Z,1.27
2019-05-06T11:04:25.657Z,3.77
2019-05-06T11:06:54.463Z,2.93
2019-05-06T11:09:23.151Z,5.03
2019-05-06T11:11:51.857Z,3.20
2019-05-06T11:14:22.718Z,2.73
2019-05-06T11:16:50.824Z,3.07
2019-05-06T11:19:19.507Z,5.27
2019-05-06T11:21:48.207Z,3.00
2019-05-06T11:24:16.909Z,2.57
2019-05-06T11:26:45.591Z,2.50
2019-05-06T11:29:18.987Z,4.30
2019-05-06T11:31:54.299Z,4.93
2019-05-06T11:34:42.065Z,1.00
2019-05-06T11:37:42.289Z,1.10
2019-05-06T11:39:59.538Z,2.83
2019-05-06T11:42:32.550Z,1.30
2019-05-06T11:44:58.795Z,1.57
2019-05-06T11:47:27.489Z,2.33
2019-05-06T11:49:57.570Z,4.23
2019-05-06T11:52:26.828Z,3.17
2019-05-06T11:54:55.695Z,5.77
2019-05-06T11:57:45.223Z,2.50
2019-05-06T12:00:16.162Z,3.23
2019-05-06T12:02:48.434Z,2.97
2019-05-06T12:05:15.396Z,3.53
2019-05-06T12:08:00.397Z,3.80
2019-05-06T12:10:14.633Z,2.97
2019-05-06T12:12:43.322Z,2.77
2019-05-06T12:15:12.695Z,1.70
2019-05-06T12:17:42.162Z,2.33
2019-05-06T12:20:13.138Z,2.43
2019-05-06T12:22:42.521Z,4.23
2019-05-06T12:25:15.307Z,2.33
2019-05-06T12:27:45.124Z,3.57
2019-05-06T12:30:19.532Z,2.37
2019-05-06T12:33:04.965Z,3.70
2019-05-06T12:35:35.287Z,6.80
2019-05-06T12:38:23.096Z,2.87
2019-05-06T12:40:35.889Z,1.87
2019-05-06T12:43:12.929Z,3.87
2019-05-06T12:45:43.281Z,1.17
2019-05-06T12:48:22.791Z,1.20
2019-05-06T12:50:52.485Z,2.00
2019-05-06T12:53:23.159Z,1.40
2019-05-06T12:55:52.056Z,3.93
2019-05-06T12:58:23.300Z,4.90
2019-05-06T13:00:53.965Z,1.97
2019-05-06T13:03:23.423Z,1.17
2019-05-06T13:05:52.199Z,1.57
2019-05-06T13:08:27.356Z,3.17
2019-05-06T13:10:52.605Z,2.13
2019-05-06T13:13:22.444Z,1.80
2019-05-06T13:15:52.866Z,3.30
2019-05-06T13:18:23.169Z,2.20
2019-05-06T13:20:53.255Z,3.27
2019-05-06T13:23:26.774Z,2.17
2019-05-06T13:25:55.511Z,3.23
2019-05-06T13:28:25.848Z,2.20
2019-05-06T13:30:54.540Z,2.53
2019-05-06T13:33:33.990Z,1.73
2019-05-06T13:36:01.469Z,2.30
2019-05-06T13:38:31.982Z,1.10
2019-05-06T13:41:21.960Z,2.70
2019-05-06T13:43:54.871Z,2.07
2019-05-06T13:46:25.206Z,2.70
2019-05-06T13:48:57.440Z,5.00
2019-05-06T13:51:36.673Z,2.17
2019-05-06T13:54:05.363Z,4.30
2019-05-06T13:56:34.095Z,1.70
2019-05-06T13:59:05.107Z,4.13
2019-05-06T14:01:44.356Z,2.67
2019-05-06T14:04:14.659Z,5.77
2019-05-06T14:06:43.511Z,1.53
2019-05-06T14:09:27.617Z,2.03
2019-05-06T14:11:42.679Z,1.40
2019-05-06T14:14:12.571Z,2.90
2019-05-06T14:16:42.701Z,2.13
2019-05-06T14:19:13.178Z,3.00
2019-05-06T14:21:43.135Z,6.17
2019-05-06T14:24:13.247Z,2.77
2019-05-06T14:27:05.844Z,1.40
2019-05-06T14:29:36.183Z,2.90
2019-05-06T14:32:05.103Z,4.53
2019-05-06T14:34:33.804Z,3.37
2019-05-06T14:37:02.488Z,3.20
2019-05-06T14:39:50.179Z,2.10
2019-05-06T14:42:05.887Z,1.77
2019-05-06T14:44:34.584Z,4.13
2019-05-06T14:47:07.731Z,2.50
2019-05-06T14:49:36.427Z,1.73
2019-05-06T14:52:05.219Z,3.33
2019-05-06T14:54:35.563Z,1.13
2019-05-06T14:57:05.891Z,2.27
2019-05-06T14:59:34.580Z,1.03
2019-05-06T15:02:03.280Z,1.67
2019-05-06T15:04:32.665Z,1.97
2019-05-06T15:07:02.143Z,1.03
2019-05-06T15:09:32.952Z,1.03
2019-05-06T15:12:02.486Z,1.50
2019-05-06T15:14:33.054Z,2.43
2019-05-06T15:17:02.273Z,2.00
2019-05-06T15:19:31.111Z,1.40
2019-05-06T15:22:02.098Z,1.50
2019-05-06T15:24:30.147Z,2.03
2019-05-06T15:26:58.835Z,1.53
2019-05-06T15:29:27.536Z,1.83
2019-05-06T15:32:03.753Z,1.77
2019-05-06T15:34:52.719Z,4.93
2019-05-06T15:37:49.359Z,3.00
2019-05-06T15:40:31.037Z,2.07
2019-05-06T15:42:48.795Z,2.33
2019-05-06T15:45:17.794Z,4.33
2019-05-06T15:47:46.476Z,3.27
2019-05-06T15:50:17.739Z,2.43
2019-05-06T15:52:46.132Z,1.70
2019-05-06T15:55:14.831Z,4.43
2019-05-06T15:57:43.681Z,1.93
2019-05-06T16:00:14.799Z,3.97
2019-05-06T16:02:43.494Z,4.43
2019-05-06T16:05:19.455Z,5.80
2019-05-06T16:07:43.454Z,1.00
2019-05-06T16:10:13.301Z,1.53
2019-05-06T16:12:44.017Z,1.77
2019-05-06T16:15:13.104Z,2.33
2019-05-06T16:17:42.646Z,1.70
2019-05-06T16:20:12.976Z,2.73
2019-05-06T16:22:44.463Z,1.47
2019-05-06T16:25:15.964Z,4.03
2019-05-06T16:27:46.303Z,2.63
2019-05-06T16:30:17.267Z,7.97
2019-05-06T16:32:45.974Z,1.83
2019-05-06T16:35:14.875Z,2.70
2019-05-06T16:37:43.569Z,1.20
2019-05-06T16:40:12.960Z,3.57
2019-05-06T16:42:45.427Z,1.97
2019-05-06T16:45:12.649Z,2.93
2019-05-06T16:47:44.517Z,3.93
2019-05-06T16:50:18.280Z,1.60
2019-05-06T16:52:46.967Z,3.20
2019-05-06T16:55:18.971Z,2.30
2019-05-06T16:57:55.175Z,4.67
2019-05-06T17:00:25.604Z,2.53
2019-05-06T17:03:01.657Z,2.07
2019-05-06T17:05:33.735Z,1.57
2019-05-06T17:08:02.951Z,3.70
2019-05-06T17:10:32.326Z,4.33
2019-05-06T17:13:02.976Z,1.77
2019-05-06T17:15:32.589Z,2.03
2019-05-06T17:18:03.144Z,2.63
2019-05-06T17:20:32.686Z,2.47
2019-05-06T17:23:02.903Z,1.50
2019-05-06T17:25:33.447Z,2.40
2019-05-06T17:28:04.131Z,3.53
2019-05-06T17:30:34.460Z,2.03
2019-05-06T17:33:04.799Z,1.67
2019-05-06T17:35:33.419Z,0.40
2019-05-06T17:38:06.716Z,2.53
2019-05-06T17:40:35.580Z,1.00
2019-05-06T17:43:04.278Z,3.07
2019-05-06T17:45:51.584Z,1.90
2019-05-06T17:48:33.679Z,0.93
2019-05-06T17:51:19.383Z,2.63
2019-05-06T17:53:55.639Z,4.03
2019-05-06T17:56:24.375Z,0.83
2019-05-06T17:58:53.387Z,3.43
2019-05-06T18:01:33.382Z,1.30
2019-05-06T18:04:02.395Z,1.13
2019-05-06T18:06:32.974Z,5.97
2019-05-06T18:09:02.499Z,0.60
2019-05-06T18:11:33.250Z,2.10
2019-05-06T18:14:04.055Z,3.83
2019-05-06T18:16:33.481Z,2.13
2019-05-06T18:19:03.103Z,4.10
2019-05-06T18:21:32.027Z,1.80
2019-05-06T18:24:02.844Z,3.43
2019-05-06T18:26:33.365Z,1.67
2019-05-06T18:29:01.407Z,1.13
2019-05-06T18:31:30.113Z,1.80
2019-05-06T18:33:58.799Z,1.00
2019-05-06T18:36:27.495Z,1.83
2019-05-06T18:38:56.206Z,0.83
2019-05-06T18:41:24.971Z,2.53
2019-05-06T18:43:53.777Z,4.00
2019-05-06T18:46:22.455Z,1.70
2019-05-06T18:48:52.468Z,0.57
2019-05-06T18:51:22.307Z,1.77
2019-05-06T18:53:52.438Z,3.83
2019-05-06T18:56:22.390Z,3.33
2019-05-06T18:58:53.100Z,2.17
2019-05-06T19:01:23.172Z,1.93
2019-05-06T19:04:00.227Z,2.30
2019-05-06T19:06:28.923Z,3.53
2019-05-06T19:09:14.475Z,1.80
2019-05-06T19:11:43.234Z,1.13
2019-05-06T19:14:12.648Z,0.83
2019-05-06T19:16:49.641Z,1.93
2019-05-06T19:19:12.466Z,1.27
2019-05-06T19:21:42.830Z,4.93
2019-05-06T19:24:12.271Z,2.13
2019-05-06T19:26:42.795Z,4.07
2019-05-06T19:29:12.277Z,1.27
2019-05-06T19:31:42.533Z,1.67
2019-05-06T19:34:12.944Z,4.23
2019-05-06T19:36:42.275Z,1.77
2019-05-06T19:39:12.667Z,3.60
2019-05-06T19:41:41.511Z,3.07
2019-05-06T19:44:12.730Z,1.07
2019-05-06T19:46:42.383Z,1.47
2019-05-06T19:49:10.900Z,2.00
2019-05-06T19:51:39.522Z,1.77
2019-05-06T19:54:08.233Z,2.57
2019-05-06T19:56:36.911Z,9.73
2019-05-06T19:59:05.613Z,2.20
2019-05-06T20:01:34.367Z,3.33
2019-05-06T20:04:03.135Z,2.97
2019-05-06T20:06:42.764Z,1.47
2019-05-06T20:09:22.228Z,1.77
2019-05-06T20:11:52.639Z,3.27
2019-05-06T20:14:22.031Z,4.00
2019-05-06T20:16:52.891Z,2.03
2019-05-06T20:19:29.840Z,1.03
2019-05-06T20:21:52.711Z,1.97
2019-05-06T20:24:22.529Z,1.93
2019-05-06T20:26:52.674Z,1.60
2019-05-06T20:29:22.434Z,2.30
2019-05-06T20:31:53.308Z,1.63
2019-05-06T20:34:22.439Z,4.13
2019-05-06T20:36:52.795Z,3.43
2019-05-06T20:39:22.959Z,2.90
2019-05-06T20:41:51.789Z,2.60
2019-05-06T20:44:22.912Z,1.90
2019-05-06T20:46:52.644Z,2.93
2019-05-06T20:49:42.962Z,1.83
2019-05-06T20:52:12.235Z,2.00
2019-05-06T20:54:42.629Z,3.00
2019-05-06T20:57:12.249Z,0.93
2019-05-06T20:59:41.969Z,4.90
2019-05-06T21:02:12.499Z,3.23
2019-05-06T21:04:43.167Z,0.83
2019-05-06T21:07:12.362Z,2.87
2019-05-06T21:09:43.201Z,3.60
2019-05-06T21:12:11.699Z,2.20
2019-05-06T21:14:42.080Z,2.43
2019-05-06T21:17:12.333Z,2.13
2019-05-06T21:19:41.234Z,3.43
2019-05-06T21:22:10.055Z,1.83
2019-05-06T21:24:38.753Z,1.30
2019-05-06T21:27:07.449Z,4.03
2019-05-06T21:29:36.064Z,2.20
2019-05-06T21:32:04.755Z,4.23
2019-05-06T21:34:33.461Z,2.47
2019-05-06T21:37:02.884Z,1.50
2019-05-06T21:39:33.032Z,2.30
2019-05-06T21:42:01.742Z,1.30
2019-05-06T21:44:32.350Z,3.63
2019-05-06T21:47:02.830Z,4.63
2019-05-06T21:49:32.669Z,6.00
2019-05-06T21:52:02.168Z,6.37
2019-05-06T21:54:32.726Z,5.60
2019-05-06T21:57:02.864Z,2.80
2019-05-06T21:59:31.851Z,1.40
2019-05-06T22:02:00.822Z,3.17
2019-05-06T22:04:29.503Z,2.23
2019-05-06T22:06:58.201Z,2.33
2019-05-06T22:09:26.892Z,2.73
2019-05-06T22:11:55.580Z,2.90
2019-05-06T22:14:24.354Z,3.77
2019-05-06T22:16:53.043Z,4.13
2019-05-06T22:19:21.741Z,2.30
2019-05-06T22:22:07.108Z,2.90
2019-05-06T22:24:48.940Z,1.63
2019-05-06T22:27:17.994Z,2.53
2019-05-06T22:29:46.693Z,2.30
2019-05-06T22:32:15.953Z,2.97
2019-05-06T22:34:44.662Z,3.70
2019-05-06T22:37:13.448Z,1.70
2019-05-06T22:39:43.584Z,3.03
2019-05-06T22:42:12.643Z,2.17
2019-05-06T22:44:42.925Z,2.90
2019-05-06T22:47:12.221Z,1.23
2019-05-06T22:49:40.980Z,2.90
2019-05-06T22:52:09.799Z,7.33
2019-05-06T22:54:38.506Z,2.63
2019-05-06T22:57:07.175Z,1.93
2019-05-06T22:59:35.887Z,2.43
2019-05-06T23:02:13.143Z,3.03
2019-05-06T23:04:46.262Z,1.13
2019-05-06T23:07:15.012Z,3.83
2019-05-06T23:10:04.182Z,2.27
2019-05-06T23:12:33.376Z,3.33
2019-05-06T23:15:02.622Z,1.60
2019-05-06T23:17:34.256Z,3.07
2019-05-06T23:20:02.315Z,2.00
2019-05-06T23:22:32.109Z,2.20
2019-05-06T23:25:02.249Z,1.40
2019-05-06T23:27:31.053Z,1.80
2019-05-06T23:29:59.747Z,2.13
2019-05-06T23:32:28.439Z,4.23
2019-05-06T23:34:57.129Z,1.70
2019-05-06T23:37:24.615Z,2.10
2019-05-06T23:40:33.118Z,1.67
2019-05-06T23:43:38.793Z,1.40
2019-05-06T23:46:44.014Z,2.67
2019-05-06T23:49:49.345Z,4.73
2019-05-06T23:52:54.470Z,1.40
2019-05-06T23:55:59.251Z,2.53
2019-05-06T23:58:26.723Z,2.33
